sensor_id;sensor_type;location;lat;lon;timestamp;P1;durP1;ratioP1;P2;durP2;ratioP2
3747;SDS011;1889;50.058;8.688;2024-03-02T00:00:16;4.53;;;4.00;;
3747;SDS011;1889;50.058;8.688;2024-03-02T00:02:48;6.12;;;4.17;;
3747;SDS011;1889;50.058;8.688;2024-03-02T00:05:18;5.05;;;4.40;;
3747;SDS011;1889;50.058;8.688;2024-03-02T00:07:55;4.47;;;3.85;;
3747;SDS011;1889;50.058;8.688;2024-03-02T00:10:40;4.53;;;4.12;;
3747;SDS011;1889;50.058;8.688;2024-03-02T00:13:09;4.60;;;4.15;;
3747;SDS011;1889;50.058;8.688;2024-03-02T00:15:41;6.08;;;3.52;;
3747;SDS011;1889;50.058;8.688;2024-03-02T00:18:20;4.45;;;3.75;;
3747;SDS011;1889;50.058;8.688;2024-03-02T00:20:54;4.70;;;3.90;;
3747;SDS011;1889;50.058;8.688;2024-03-02T00:23:26;4.72;;;3.95;;
3747;SDS011;1889;50.058;8.688;2024-03-02T00:25:57;3.83;;;3.52;;
3747;SDS011;1889;50.058;8.688;2024-03-02T00:28:34;5.80;;;4.33;;
3747;SDS011;1889;50.058;8.688;2024-03-02T00:31:06;4.58;;;4.12;;
3747;SDS011;1889;50.058;8.688;2024-03-02T00:36:15;4.92;;;4.53;;
3747;SDS011;1889;50.058;8.688;2024-03-02T00:38:47;6.55;;;5.35;;
3747;SDS011;1889;50.058;8.688;2024-03-02T00:41:30;8.18;;;5.45;;
3747;SDS011;1889;50.058;8.688;2024-03-02T00:44:01;7.55;;;5.85;;
3747;SDS011;1889;50.058;8.688;2024-03-02T00:46:33;7.00;;;6.30;;
3747;SDS011;1889;50.058;8.688;2024-03-02T00:49:22;7.45;;;5.95;;
3747;SDS011;1889;50.058;8.688;2024-03-02T00:51:54;6.22;;;5.62;;
3747;SDS011;1889;50.058;8.688;2024-03-02T00:54:25;7.65;;;5.65;;
3747;SDS011;1889;50.058;8.688;2024-03-02T00:57:01;6.47;;;5.65;;
3747;SDS011;1889;50.058;8.688;2024-03-02T00:59:27;7.60;;;6.00;;
3747;SDS011;1889;50.058;8.688;2024-03-02T01:02:03;6.10;;;4.78;;
3747;SDS011;1889;50.058;8.688;2024-03-02T01:04:38;6.78;;;6.08;;
3747;SDS011;1889;50.058;8.688;2024-03-02T01:07:14;5.97;;;5.03;;
3747;SDS011;1889;50.058;8.688;2024-03-02T01:09:49;6.95;;;5.62;;
3747;SDS011;1889;50.058;8.688;2024-03-02T01:12:18;5.95;;;5.35;;
3747;SDS011;1889;50.058;8.688;2024-03-02T01:14:55;6.05;;;4.97;;
3747;SDS011;1889;50.058;8.688;2024-03-02T01:17:25;6.50;;;4.97;;
3747;SDS011;1889;50.058;8.688;2024-03-02T01:19:54;6.45;;;4.90;;
3747;SDS011;1889;50.058;8.688;2024-03-02T01:22:24;5.42;;;4.60;;
3747;SDS011;1889;50.058;8.688;2024-03-02T01:24:53;6.05;;;5.17;;
3747;SDS011;1889;50.058;8.688;2024-03-02T01:27:23;6.70;;;4.35;;
3747;SDS011;1889;50.058;8.688;2024-03-02T01:29:53;5.62;;;4.42;;
3747;SDS011;1889;50.058;8.688;2024-03-02T01:32:22;5.60;;;4.85;;
3747;SDS011;1889;50.058;8.688;2024-03-02T01:34:52;5.22;;;4.72;;
3747;SDS011;1889;50.058;8.688;2024-03-02T01:37:22;6.00;;;5.40;;
3747;SDS011;1889;50.058;8.688;2024-03-02T01:39:51;8.90;;;5.28;;
3747;SDS011;1889;50.058;8.688;2024-03-02T01:42:21;6.17;;;4.72;;
3747;SDS011;1889;50.058;8.688;2024-03-02T01:44:51;7.05;;;4.83;;
3747;SDS011;1889;50.058;8.688;2024-03-02T01:47:20;8.85;;;5.35;;
3747;SDS011;1889;50.058;8.688;2024-03-02T01:49:50;7.03;;;5.55;;
3747;SDS011;1889;50.058;8.688;2024-03-02T01:52:19;7.30;;;5.65;;
3747;SDS011;1889;50.058;8.688;2024-03-02T01:54:51;7.20;;;5.58;;
3747;SDS011;1889;50.058;8.688;2024-03-02T01:57:21;6.85;;;5.70;;
3747;SDS011;1889;50.058;8.688;2024-03-02T01:59:51;7.67;;;5.65;;
3747;SDS011;1889;50.058;8.688;2024-03-02T02:02:21;6.40;;;5.35;;
3747;SDS011;1889;50.058;8.688;2024-03-02T02:04:50;5.83;;;5.22;;
3747;SDS011;1889;50.058;8.688;2024-03-02T02:07:20;10.70;;;5.70;;
3747;SDS011;1889;50.058;8.688;2024-03-02T02:09:49;6.17;;;5.30;;
3747;SDS011;1889;50.058;8.688;2024-03-02T02:12:19;6.45;;;5.35;;
3747;SDS011;1889;50.058;8.688;2024-03-02T02:14:48;8.15;;;6.60;;
3747;SDS011;1889;50.058;8.688;2024-03-02T02:17:18;5.87;;;5.28;;
3747;SDS011;1889;50.058;8.688;2024-03-02T02:19:48;6.50;;;5.50;;
3747;SDS011;1889;50.058;8.688;2024-03-02T02:22:17;6.92;;;6.20;;
3747;SDS011;1889;50.058;8.688;2024-03-02T02:24:46;6.95;;;6.17;;
3747;SDS011;1889;50.058;8.688;2024-03-02T02:27:15;7.75;;;5.47;;
3747;SDS011;1889;50.058;8.688;2024-03-02T02:29:45;7.33;;;5.47;;
3747;SDS011;1889;50.058;8.688;2024-03-02T02:32:14;6.22;;;5.53;;
3747;SDS011;1889;50.058;8.688;2024-03-02T02:34:44;6.75;;;5.87;;
3747;SDS011;1889;50.058;8.688;2024-03-02T02:37:13;6.62;;;5.95;;
3747;SDS011;1889;50.058;8.688;2024-03-02T02:39:43;7.15;;;6.05;;
3747;SDS011;1889;50.058;8.688;2024-03-02T02:42:14;6.58;;;5.42;;
3747;SDS011;1889;50.058;8.688;2024-03-02T02:44:43;7.03;;;6.33;;
3747;SDS011;1889;50.058;8.688;2024-03-02T02:47:12;6.53;;;5.83;;
3747;SDS011;1889;50.058;8.688;2024-03-02T02:49:42;9.35;;;5.87;;
3747;SDS011;1889;50.058;8.688;2024-03-02T02:52:11;7.30;;;5.83;;
3747;SDS011;1889;50.058;8.688;2024-03-02T02:54:40;6.78;;;5.85;;
3747;SDS011;1889;50.058;8.688;2024-03-02T02:57:09;9.28;;;6.37;;
3747;SDS011;1889;50.058;8.688;2024-03-02T02:59:39;7.55;;;6.28;;
3747;SDS011;1889;50.058;8.688;2024-03-02T03:02:08;8.18;;;6.60;;
3747;SDS011;1889;50.058;8.688;2024-03-02T03:04:39;6.75;;;6.05;;
3747;SDS011;1889;50.058;8.688;2024-03-02T03:07:08;9.58;;;7.20;;
3747;SDS011;1889;50.058;8.688;2024-03-02T03:09:38;9.03;;;6.67;;
3747;SDS011;1889;50.058;8.688;2024-03-02T03:12:07;7.60;;;6.60;;
3747;SDS011;1889;50.058;8.688;2024-03-02T03:14:36;9.93;;;7.47;;
3747;SDS011;1889;50.058;8.688;2024-03-02T03:17:06;10.53;;;7.58;;
3747;SDS011;1889;50.058;8.688;2024-03-02T03:19:35;10.58;;;6.80;;
3747;SDS011;1889;50.058;8.688;2024-03-02T03:22:06;9.00;;;6.72;;
3747;SDS011;1889;50.058;8.688;2024-03-02T03:24:35;8.70;;;6.92;;
3747;SDS011;1889;50.058;8.688;2024-03-02T03:27:05;9.13;;;7.85;;
3747;SDS011;1889;50.058;8.688;2024-03-02T03:29:35;7.80;;;6.83;;
3747;SDS011;1889;50.058;8.688;2024-03-02T03:32:05;8.20;;;7.35;;
3747;SDS011;1889;50.058;8.688;2024-03-02T03:34:35;9.73;;;7.67;;
3747;SDS011;1889;50.058;8.688;2024-03-02T03:37:04;9.15;;;7.22;;
3747;SDS011;1889;50.058;8.688;2024-03-02T03:39:34;9.73;;;7.72;;
3747;SDS011;1889;50.058;8.688;2024-03-02T03:42:03;11.25;;;8.90;;
3747;SDS011;1889;50.058;8.688;2024-03-02T03:44:33;11.05;;;8.73;;
3747;SDS011;1889;50.058;8.688;2024-03-02T03:47:03;11.40;;;8.75;;
3747;SDS011;1889;50.058;8.688;2024-03-02T03:49:32;12.70;;;10.00;;
3747;SDS011;1889;50.058;8.688;2024-03-02T03:52:01;12.25;;;9.73;;
3747;SDS011;1889;50.058;8.688;2024-03-02T03:54:31;10.90;;;9.20;;
3747;SDS011;1889;50.058;8.688;2024-03-02T03:57:00;10.28;;;8.23;;
3747;SDS011;1889;50.058;8.688;2024-03-02T03:59:30;12.43;;;8.73;;
3747;SDS011;1889;50.058;8.688;2024-03-02T04:01:59;12.13;;;9.18;;
3747;SDS011;1889;50.058;8.688;2024-03-02T04:04:28;9.53;;;8.35;;
3747;SDS011;1889;50.058;8.688;2024-03-02T04:06:57;10.75;;;8.50;;
3747;SDS011;1889;50.058;8.688;2024-03-02T04:09:27;8.98;;;7.58;;
3747;SDS011;1889;50.058;8.688;2024-03-02T04:11:56;9.08;;;7.67;;
3747;SDS011;1889;50.058;8.688;2024-03-02T04:14:25;9.95;;;7.65;;
3747;SDS011;1889;50.058;8.688;2024-03-02T04:16:55;10.70;;;8.53;;
3747;SDS011;1889;50.058;8.688;2024-03-02T04:19:24;10.03;;;7.92;;
3747;SDS011;1889;50.058;8.688;2024-03-02T04:21:53;11.88;;;8.55;;
3747;SDS011;1889;50.058;8.688;2024-03-02T04:24:23;13.72;;;9.15;;
3747;SDS011;1889;50.058;8.688;2024-03-02T04:26:52;11.00;;;8.93;;
3747;SDS011;1889;50.058;8.688;2024-03-02T04:29:21;11.95;;;9.53;;
3747;SDS011;1889;50.058;8.688;2024-03-02T04:31:50;12.85;;;8.83;;
3747;SDS011;1889;50.058;8.688;2024-03-02T04:34:20;12.03;;;8.70;;
3747;SDS011;1889;50.058;8.688;2024-03-02T04:36:49;11.08;;;8.70;;
3747;SDS011;1889;50.058;8.688;2024-03-02T04:39:19;10.65;;;8.55;;
3747;SDS011;1889;50.058;8.688;2024-03-02T04:41:48;11.80;;;9.10;;
3747;SDS011;1889;50.058;8.688;2024-03-02T04:44:17;13.30;;;9.38;;
3747;SDS011;1889;50.058;8.688;2024-03-02T04:46:46;11.48;;;8.73;;
3747;SDS011;1889;50.058;8.688;2024-03-02T04:49:16;10.55;;;8.35;;
3747;SDS011;1889;50.058;8.688;2024-03-02T04:51:45;12.63;;;9.48;;
3747;SDS011;1889;50.058;8.688;2024-03-02T04:54:14;11.08;;;9.28;;
3747;SDS011;1889;50.058;8.688;2024-03-02T04:56:44;13.43;;;9.38;;
3747;SDS011;1889;50.058;8.688;2024-03-02T04:59:17;11.00;;;9.60;;
3747;SDS011;1889;50.058;8.688;2024-03-02T05:01:47;10.78;;;8.65;;
3747;SDS011;1889;50.058;8.688;2024-03-02T05:04:16;10.70;;;8.78;;
3747;SDS011;1889;50.058;8.688;2024-03-02T05:06:46;11.88;;;9.95;;
3747;SDS011;1889;50.058;8.688;2024-03-02T05:09:17;13.03;;;9.45;;
3747;SDS011;1889;50.058;8.688;2024-03-02T05:11:46;12.30;;;9.33;;
3747;SDS011;1889;50.058;8.688;2024-03-02T05:14:20;14.63;;;10.28;;
3747;SDS011;1889;50.058;8.688;2024-03-02T05:16:49;12.10;;;9.78;;
3747;SDS011;1889;50.058;8.688;2024-03-02T05:19:19;11.50;;;9.43;;
3747;SDS011;1889;50.058;8.688;2024-03-02T05:21:48;12.75;;;10.10;;
3747;SDS011;1889;50.058;8.688;2024-03-02T05:24:19;12.80;;;9.70;;
3747;SDS011;1889;50.058;8.688;2024-03-02T05:26:48;10.98;;;9.33;;
3747;SDS011;1889;50.058;8.688;2024-03-02T05:29:17;17.85;;;10.93;;
3747;SDS011;1889;50.058;8.688;2024-03-02T05:31:47;12.45;;;9.78;;
3747;SDS011;1889;50.058;8.688;2024-03-02T05:34:16;11.40;;;9.98;;
3747;SDS011;1889;50.058;8.688;2024-03-02T05:36:46;11.88;;;9.98;;
3747;SDS011;1889;50.058;8.688;2024-03-02T05:39:15;13.88;;;10.55;;
3747;SDS011;1889;50.058;8.688;2024-03-02T05:41:44;14.40;;;10.72;;
3747;SDS011;1889;50.058;8.688;2024-03-02T05:44:14;15.75;;;10.30;;
3747;SDS011;1889;50.058;8.688;2024-03-02T05:46:43;12.93;;;9.43;;
3747;SDS011;1889;50.058;8.688;2024-03-02T05:49:12;12.25;;;9.98;;
3747;SDS011;1889;50.058;8.688;2024-03-02T05:51:42;10.93;;;9.15;;
3747;SDS011;1889;50.058;8.688;2024-03-02T05:54:11;14.18;;;10.65;;
3747;SDS011;1889;50.058;8.688;2024-03-02T05:56:40;14.65;;;11.08;;
3747;SDS011;1889;50.058;8.688;2024-03-02T05:59:10;13.70;;;11.05;;
3747;SDS011;1889;50.058;8.688;2024-03-02T06:01:43;11.48;;;9.98;;
3747;SDS011;1889;50.058;8.688;2024-03-02T06:04:14;12.73;;;10.53;;
3747;SDS011;1889;50.058;8.688;2024-03-02T06:06:43;13.30;;;10.40;;
3747;SDS011;1889;50.058;8.688;2024-03-02T06:09:13;13.80;;;10.60;;
3747;SDS011;1889;50.058;8.688;2024-03-02T06:11:43;13.72;;;10.78;;
3747;SDS011;1889;50.058;8.688;2024-03-02T06:14:12;13.28;;;10.35;;
3747;SDS011;1889;50.058;8.688;2024-03-02T06:16:42;12.18;;;10.45;;
3747;SDS011;1889;50.058;8.688;2024-03-02T06:19:11;14.45;;;10.78;;
3747;SDS011;1889;50.058;8.688;2024-03-02T06:21:40;13.15;;;10.20;;
3747;SDS011;1889;50.058;8.688;2024-03-02T06:24:10;13.90;;;11.10;;
3747;SDS011;1889;50.058;8.688;2024-03-02T06:26:39;14.28;;;10.50;;
3747;SDS011;1889;50.058;8.688;2024-03-02T06:29:08;14.43;;;10.38;;
3747;SDS011;1889;50.058;8.688;2024-03-02T06:31:38;12.88;;;10.13;;
3747;SDS011;1889;50.058;8.688;2024-03-02T06:34:07;13.83;;;11.08;;
3747;SDS011;1889;50.058;8.688;2024-03-02T06:36:38;12.50;;;9.85;;
3747;SDS011;1889;50.058;8.688;2024-03-02T06:39:08;14.40;;;10.43;;
3747;SDS011;1889;50.058;8.688;2024-03-02T06:41:39;14.28;;;11.05;;
3747;SDS011;1889;50.058;8.688;2024-03-02T06:44:10;15.03;;;12.25;;
3747;SDS011;1889;50.058;8.688;2024-03-02T06:46:39;19.15;;;13.93;;
3747;SDS011;1889;50.058;8.688;2024-03-02T06:49:08;14.10;;;11.35;;
3747;SDS011;1889;50.058;8.688;2024-03-02T06:51:41;14.40;;;10.95;;
3747;SDS011;1889;50.058;8.688;2024-03-02T06:54:10;14.98;;;11.30;;
3747;SDS011;1889;50.058;8.688;2024-03-02T06:56:39;13.40;;;10.60;;
3747;SDS011;1889;50.058;8.688;2024-03-02T06:59:09;14.25;;;11.65;;
3747;SDS011;1889;50.058;8.688;2024-03-02T07:01:38;15.72;;;11.63;;
3747;SDS011;1889;50.058;8.688;2024-03-02T07:04:07;17.07;;;12.90;;
3747;SDS011;1889;50.058;8.688;2024-03-02T07:06:37;17.50;;;13.10;;
3747;SDS011;1889;50.058;8.688;2024-03-02T07:09:06;14.87;;;11.55;;
3747;SDS011;1889;50.058;8.688;2024-03-02T07:11:37;17.30;;;12.85;;
3747;SDS011;1889;50.058;8.688;2024-03-02T07:14:06;16.42;;;13.32;;
3747;SDS011;1889;50.058;8.688;2024-03-02T07:16:37;16.95;;;12.95;;
3747;SDS011;1889;50.058;8.688;2024-03-02T07:19:07;16.55;;;12.63;;
3747;SDS011;1889;50.058;8.688;2024-03-02T07:21:37;14.58;;;11.18;;
3747;SDS011;1889;50.058;8.688;2024-03-02T07:24:06;17.10;;;12.88;;
3747;SDS011;1889;50.058;8.688;2024-03-02T07:26:37;18.87;;;13.38;;
3747;SDS011;1889;50.058;8.688;2024-03-02T07:29:07;20.82;;;15.35;;
3747;SDS011;1889;50.058;8.688;2024-03-02T07:31:36;25.27;;;18.00;;
3747;SDS011;1889;50.058;8.688;2024-03-02T07:34:05;24.87;;;17.40;;
3747;SDS011;1889;50.058;8.688;2024-03-02T07:36:35;21.55;;;15.50;;
3747;SDS011;1889;50.058;8.688;2024-03-02T07:39:06;21.70;;;15.72;;
3747;SDS011;1889;50.058;8.688;2024-03-02T07:41:35;15.23;;;12.43;;
3747;SDS011;1889;50.058;8.688;2024-03-02T07:44:05;18.52;;;12.98;;
3747;SDS011;1889;50.058;8.688;2024-03-02T07:46:34;18.32;;;12.05;;
3747;SDS011;1889;50.058;8.688;2024-03-02T07:49:04;13.28;;;11.38;;
3747;SDS011;1889;50.058;8.688;2024-03-02T07:51:33;16.82;;;11.63;;
3747;SDS011;1889;50.058;8.688;2024-03-02T07:54:02;15.45;;;11.65;;
3747;SDS011;1889;50.058;8.688;2024-03-02T07:56:32;13.70;;;11.53;;
3747;SDS011;1889;50.058;8.688;2024-03-02T07:59:02;14.63;;;11.90;;
3747;SDS011;1889;50.058;8.688;2024-03-02T08:01:32;15.50;;;11.78;;
3747;SDS011;1889;50.058;8.688;2024-03-02T08:04:01;16.75;;;11.97;;
3747;SDS011;1889;50.058;8.688;2024-03-02T08:06:33;14.55;;;11.95;;
3747;SDS011;1889;50.058;8.688;2024-03-02T08:09:02;15.00;;;11.90;;
3747;SDS011;1889;50.058;8.688;2024-03-02T08:11:33;14.05;;;11.50;;
3747;SDS011;1889;50.058;8.688;2024-03-02T08:14:03;14.75;;;12.47;;
3747;SDS011;1889;50.058;8.688;2024-03-02T08:16:32;14.30;;;12.18;;
3747;SDS011;1889;50.058;8.688;2024-03-02T08:19:02;13.18;;;11.43;;
3747;SDS011;1889;50.058;8.688;2024-03-02T08:21:31;14.20;;;11.65;;
3747;SDS011;1889;50.058;8.688;2024-03-02T08:24:02;14.05;;;11.35;;
3747;SDS011;1889;50.058;8.688;2024-03-02T08:26:32;17.07;;;11.78;;
3747;SDS011;1889;50.058;8.688;2024-03-02T08:29:01;14.28;;;11.12;;
3747;SDS011;1889;50.058;8.688;2024-03-02T08:31:31;15.10;;;12.00;;
3747;SDS011;1889;50.058;8.688;2024-03-02T08:34:00;15.25;;;12.33;;
3747;SDS011;1889;50.058;8.688;2024-03-02T08:36:29;16.07;;;12.07;;
3747;SDS011;1889;50.058;8.688;2024-03-02T08:38:59;13.60;;;11.10;;
3747;SDS011;1889;50.058;8.688;2024-03-02T08:41:28;14.40;;;11.65;;
3747;SDS011;1889;50.058;8.688;2024-03-02T08:43:57;14.13;;;10.30;;
3747;SDS011;1889;50.058;8.688;2024-03-02T08:46:27;12.40;;;10.55;;
3747;SDS011;1889;50.058;8.688;2024-03-02T08:48:57;11.45;;;10.25;;
3747;SDS011;1889;50.058;8.688;2024-03-02T08:51:26;13.13;;;11.00;;
3747;SDS011;1889;50.058;8.688;2024-03-02T08:53:56;14.30;;;11.22;;
3747;SDS011;1889;50.058;8.688;2024-03-02T08:56:25;12.20;;;9.83;;
3747;SDS011;1889;50.058;8.688;2024-03-02T08:58:55;14.68;;;10.98;;
3747;SDS011;1889;50.058;8.688;2024-03-02T09:01:24;14.05;;;11.22;;
3747;SDS011;1889;50.058;8.688;2024-03-02T09:03:53;15.60;;;10.78;;
3747;SDS011;1889;50.058;8.688;2024-03-02T09:06:23;11.68;;;9.95;;
3747;SDS011;1889;50.058;8.688;2024-03-02T09:08:52;13.95;;;10.60;;
3747;SDS011;1889;50.058;8.688;2024-03-02T09:11:21;13.32;;;10.50;;
3747;SDS011;1889;50.058;8.688;2024-03-02T09:13:51;12.95;;;10.70;;
3747;SDS011;1889;50.058;8.688;2024-03-02T09:16:21;10.30;;;9.20;;
3747;SDS011;1889;50.058;8.688;2024-03-02T09:18:50;12.15;;;9.38;;
3747;SDS011;1889;50.058;8.688;2024-03-02T09:21:19;11.53;;;9.90;;
3747;SDS011;1889;50.058;8.688;2024-03-02T09:23:55;12.75;;;9.80;;
3747;SDS011;1889;50.058;8.688;2024-03-02T09:26:25;11.05;;;8.88;;
3747;SDS011;1889;50.058;8.688;2024-03-02T09:28:58;11.95;;;9.50;;
3747;SDS011;1889;50.058;8.688;2024-03-02T09:31:31;9.45;;;8.45;;
3747;SDS011;1889;50.058;8.688;2024-03-02T09:34:00;9.58;;;8.60;;
3747;SDS011;1889;50.058;8.688;2024-03-02T09:36:33;12.45;;;9.05;;
3747;SDS011;1889;50.058;8.688;2024-03-02T09:39:04;11.08;;;9.00;;
3747;SDS011;1889;50.058;8.688;2024-03-02T09:41:33;10.45;;;8.60;;
3747;SDS011;1889;50.058;8.688;2024-03-02T09:44:06;11.30;;;8.80;;
3747;SDS011;1889;50.058;8.688;2024-03-02T09:46:38;10.48;;;9.08;;
3747;SDS011;1889;50.058;8.688;2024-03-02T09:49:10;10.80;;;9.45;;
3747;SDS011;1889;50.058;8.688;2024-03-02T09:51:41;10.53;;;8.60;;
3747;SDS011;1889;50.058;8.688;2024-03-02T09:54:17;9.23;;;8.23;;
3747;SDS011;1889;50.058;8.688;2024-03-02T09:56:49;10.43;;;7.90;;
3747;SDS011;1889;50.058;8.688;2024-03-02T09:59:19;8.53;;;7.30;;
3747;SDS011;1889;50.058;8.688;2024-03-02T10:02:03;9.35;;;7.33;;
3747;SDS011;1889;50.058;8.688;2024-03-02T10:04:34;8.75;;;7.17;;
3747;SDS011;1889;50.058;8.688;2024-03-02T10:07:14;9.33;;;7.55;;
3747;SDS011;1889;50.058;8.688;2024-03-02T10:09:46;9.75;;;7.92;;
3747;SDS011;1889;50.058;8.688;2024-03-02T10:12:18;9.33;;;7.30;;
3747;SDS011;1889;50.058;8.688;2024-03-02T10:14:50;9.85;;;7.83;;
3747;SDS011;1889;50.058;8.688;2024-03-02T10:17:24;10.98;;;8.55;;
3747;SDS011;1889;50.058;8.688;2024-03-02T10:19:56;9.25;;;8.10;;
3747;SDS011;1889;50.058;8.688;2024-03-02T10:22:26;10.45;;;7.42;;
3747;SDS011;1889;50.058;8.688;2024-03-02T10:24:56;7.97;;;6.58;;
3747;SDS011;1889;50.058;8.688;2024-03-02T10:27:26;8.35;;;6.50;;
3747;SDS011;1889;50.058;8.688;2024-03-02T10:30:03;8.83;;;6.87;;
3747;SDS011;1889;50.058;8.688;2024-03-02T10:32:35;9.38;;;7.15;;
3747;SDS011;1889;50.058;8.688;2024-03-02T10:35:05;7.78;;;6.50;;
3747;SDS011;1889;50.058;8.688;2024-03-02T10:37:35;7.78;;;6.00;;
3747;SDS011;1889;50.058;8.688;2024-03-02T10:40:10;7.08;;;6.05;;
3747;SDS011;1889;50.058;8.688;2024-03-02T10:42:47;7.05;;;6.35;;
3747;SDS011;1889;50.058;8.688;2024-03-02T10:45:19;8.88;;;7.60;;
3747;SDS011;1889;50.058;8.688;2024-03-02T10:47:51;27.42;;;20.60;;
3747;SDS011;1889;50.058;8.688;2024-03-02T10:50:36;6.83;;;6.12;;
3747;SDS011;1889;50.058;8.688;2024-03-02T10:53:07;7.40;;;5.22;;
3747;SDS011;1889;50.058;8.688;2024-03-02T10:55:37;6.42;;;5.42;;
3747;SDS011;1889;50.058;8.688;2024-03-02T10:58:07;6.72;;;5.72;;
3747;SDS011;1889;50.058;8.688;2024-03-02T11:00:40;6.25;;;5.65;;
3747;SDS011;1889;50.058;8.688;2024-03-02T11:03:13;6.75;;;5.75;;
3747;SDS011;1889;50.058;8.688;2024-03-02T11:05:44;5.65;;;4.85;;
3747;SDS011;1889;50.058;8.688;2024-03-02T11:08:17;6.22;;;5.62;;
3747;SDS011;1889;50.058;8.688;2024-03-02T11:10:57;6.45;;;5.72;;
3747;SDS011;1889;50.058;8.688;2024-03-02T11:13:34;6.60;;;4.97;;
3747;SDS011;1889;50.058;8.688;2024-03-02T11:16:12;5.37;;;4.65;;
3747;SDS011;1889;50.058;8.688;2024-03-02T11:18:46;6.28;;;5.03;;
3747;SDS011;1889;50.058;8.688;2024-03-02T11:21:19;6.95;;;4.75;;
3747;SDS011;1889;50.058;8.688;2024-03-02T11:23:51;5.50;;;4.10;;
3747;SDS011;1889;50.058;8.688;2024-03-02T11:26:22;4.97;;;4.30;;
3747;SDS011;1889;50.058;8.688;2024-03-02T11:31:57;5.65;;;4.83;;
3747;SDS011;1889;50.058;8.688;2024-03-02T11:34:28;5.95;;;5.12;;
3747;SDS011;1889;50.058;8.688;2024-03-02T11:36:58;5.87;;;4.35;;
3747;SDS011;1889;50.058;8.688;2024-03-02T11:39:29;5.28;;;3.87;;
3747;SDS011;1889;50.058;8.688;2024-03-02T11:41:59;4.28;;;3.87;;
3747;SDS011;1889;50.058;8.688;2024-03-02T11:44:33;4.53;;;3.70;;
3747;SDS011;1889;50.058;8.688;2024-03-02T11:47:07;4.85;;;4.33;;
3747;SDS011;1889;50.058;8.688;2024-03-02T11:49:42;4.95;;;3.87;;
3747;SDS011;1889;50.058;8.688;2024-03-02T11:52:15;5.05;;;4.42;;
3747;SDS011;1889;50.058;8.688;2024-03-02T11:54:45;4.17;;;3.62;;
3747;SDS011;1889;50.058;8.688;2024-03-02T11:57:17;6.35;;;5.12;;
3747;SDS011;1889;50.058;8.688;2024-03-02T11:59:52;5.62;;;4.30;;
3747;SDS011;1889;50.058;8.688;2024-03-02T12:02:22;5.15;;;4.15;;
3747;SDS011;1889;50.058;8.688;2024-03-02T12:04:54;3.98;;;3.67;;
3747;SDS011;1889;50.058;8.688;2024-03-02T12:07:23;3.90;;;3.50;;
3747;SDS011;1889;50.058;8.688;2024-03-02T12:10:01;5.65;;;3.98;;
3747;SDS011;1889;50.058;8.688;2024-03-02T12:12:33;4.33;;;3.92;;
3747;SDS011;1889;50.058;8.688;2024-03-02T12:15:03;6.25;;;4.00;;
3747;SDS011;1889;50.058;8.688;2024-03-02T12:17:37;4.92;;;2.98;;
3747;SDS011;1889;50.058;8.688;2024-03-02T12:20:07;3.08;;;2.87;;
3747;SDS011;1889;50.058;8.688;2024-03-02T12:22:43;2.95;;;2.62;;
3747;SDS011;1889;50.058;8.688;2024-03-02T12:25:16;3.70;;;2.50;;
3747;SDS011;1889;50.058;8.688;2024-03-02T12:27:46;2.70;;;2.50;;
3747;SDS011;1889;50.058;8.688;2024-03-02T12:30:18;3.25;;;2.92;;
3747;SDS011;1889;50.058;8.688;2024-03-02T12:32:50;4.75;;;3.10;;
3747;SDS011;1889;50.058;8.688;2024-03-02T12:35:22;3.50;;;3.20;;
3747;SDS011;1889;50.058;8.688;2024-03-02T12:37:59;3.55;;;3.25;;
3747;SDS011;1889;50.058;8.688;2024-03-02T12:40:30;3.45;;;3.12;;
3747;SDS011;1889;50.058;8.688;2024-03-02T12:43:00;4.03;;;2.83;;
3747;SDS011;1889;50.058;8.688;2024-03-02T12:45:29;3.12;;;2.83;;
3747;SDS011;1889;50.058;8.688;2024-03-02T12:47:59;3.20;;;2.70;;
3747;SDS011;1889;50.058;8.688;2024-03-02T12:50:30;3.58;;;2.35;;
3747;SDS011;1889;50.058;8.688;2024-03-02T12:53:00;2.20;;;2.08;;
3747;SDS011;1889;50.058;8.688;2024-03-02T12:55:30;2.87;;;2.62;;
3747;SDS011;1889;50.058;8.688;2024-03-02T12:58:00;2.85;;;2.55;;
3747;SDS011;1889;50.058;8.688;2024-03-02T13:00:30;2.70;;;2.50;;
3747;SDS011;1889;50.058;8.688;2024-03-02T13:03:01;3.72;;;2.70;;
3747;SDS011;1889;50.058;8.688;2024-03-02T13:05:31;2.75;;;2.55;;
3747;SDS011;1889;50.058;8.688;2024-03-02T13:08:00;7.80;;;5.80;;
3747;SDS011;1889;50.058;8.688;2024-03-02T13:10:33;3.52;;;2.60;;
3747;SDS011;1889;50.058;8.688;2024-03-02T13:13:05;4.10;;;3.70;;
3747;SDS011;1889;50.058;8.688;2024-03-02T13:15:44;2.80;;;2.40;;
3747;SDS011;1889;50.058;8.688;2024-03-02T13:18:21;2.95;;;2.52;;
3747;SDS011;1889;50.058;8.688;2024-03-02T13:20:59;2.45;;;2.25;;
3747;SDS011;1889;50.058;8.688;2024-03-02T13:23:33;4.37;;;2.50;;
3747;SDS011;1889;50.058;8.688;2024-03-02T13:26:04;3.12;;;2.27;;
3747;SDS011;1889;50.058;8.688;2024-03-02T13:28:35;2.47;;;2.27;;
3747;SDS011;1889;50.058;8.688;2024-03-02T13:31:04;2.30;;;2.10;;
3747;SDS011;1889;50.058;8.688;2024-03-02T13:33:33;2.42;;;2.22;;
3747;SDS011;1889;50.058;8.688;2024-03-02T13:36:03;2.85;;;2.33;;
3747;SDS011;1889;50.058;8.688;2024-03-02T13:38:32;3.55;;;2.55;;
3747;SDS011;1889;50.058;8.688;2024-03-02T13:41:02;4.28;;;2.62;;
3747;SDS011;1889;50.058;8.688;2024-03-02T13:43:31;2.58;;;2.22;;
3747;SDS011;1889;50.058;8.688;2024-03-02T13:46:02;2.45;;;2.25;;
3747;SDS011;1889;50.058;8.688;2024-03-02T13:48:31;3.30;;;2.77;;
3747;SDS011;1889;50.058;8.688;2024-03-02T13:51:01;3.37;;;2.55;;
3747;SDS011;1889;50.058;8.688;2024-03-02T13:53:31;2.42;;;2.17;;
3747;SDS011;1889;50.058;8.688;2024-03-02T13:56:01;2.50;;;2.10;;
3747;SDS011;1889;50.058;8.688;2024-03-02T13:58:32;3.35;;;2.08;;
3747;SDS011;1889;50.058;8.688;2024-03-02T14:01:02;2.65;;;2.33;;
3747;SDS011;1889;50.058;8.688;2024-03-02T14:03:32;2.90;;;2.17;;
3747;SDS011;1889;50.058;8.688;2024-03-02T14:06:02;2.20;;;2.00;;
3747;SDS011;1889;50.058;8.688;2024-03-02T14:08:32;2.47;;;2.27;;
3747;SDS011;1889;50.058;8.688;2024-03-02T14:11:03;2.33;;;2.12;;
3747;SDS011;1889;50.058;8.688;2024-03-02T14:13:32;2.65;;;2.08;;
3747;SDS011;1889;50.058;8.688;2024-03-02T14:16:02;4.30;;;1.75;;
3747;SDS011;1889;50.058;8.688;2024-03-02T14:18:32;2.60;;;2.40;;
3747;SDS011;1889;50.058;8.688;2024-03-02T14:21:01;2.00;;;1.80;;
3747;SDS011;1889;50.058;8.688;2024-03-02T14:23:31;2.37;;;1.90;;
3747;SDS011;1889;50.058;8.688;2024-03-02T14:26:00;2.02;;;1.87;;
3747;SDS011;1889;50.058;8.688;2024-03-02T14:28:30;2.87;;;1.90;;
3747;SDS011;1889;50.058;8.688;2024-03-02T14:30:59;2.37;;;1.77;;
3747;SDS011;1889;50.058;8.688;2024-03-02T14:33:28;2.60;;;1.98;;
3747;SDS011;1889;50.058;8.688;2024-03-02T14:35:58;1.70;;;1.60;;
3747;SDS011;1889;50.058;8.688;2024-03-02T14:38:27;2.02;;;1.80;;
3747;SDS011;1889;50.058;8.688;2024-03-02T14:40:56;1.82;;;1.72;;
3747;SDS011;1889;50.058;8.688;2024-03-02T14:43:26;2.35;;;2.15;;
3747;SDS011;1889;50.058;8.688;2024-03-02T14:45:55;3.67;;;1.98;;
3747;SDS011;1889;50.058;8.688;2024-03-02T14:48:26;3.52;;;1.60;;
3747;SDS011;1889;50.058;8.688;2024-03-02T14:50:55;2.10;;;1.60;;
3747;SDS011;1889;50.058;8.688;2024-03-02T14:53:25;2.35;;;1.90;;
3747;SDS011;1889;50.058;8.688;2024-03-02T14:55:55;2.80;;;2.60;;
3747;SDS011;1889;50.058;8.688;2024-03-02T14:58:25;2.20;;;2.00;;
3747;SDS011;1889;50.058;8.688;2024-03-02T15:00:54;1.92;;;1.82;;
3747;SDS011;1889;50.058;8.688;2024-03-02T15:03:30;2.10;;;1.90;;
3747;SDS011;1889;50.058;8.688;2024-03-02T15:05:59;1.77;;;1.67;;
3747;SDS011;1889;50.058;8.688;2024-03-02T15:08:31;2.42;;;2.22;;
3747;SDS011;1889;50.058;8.688;2024-03-02T15:11:00;3.08;;;1.62;;
3747;SDS011;1889;50.058;8.688;2024-03-02T15:13:31;3.00;;;2.10;;
3747;SDS011;1889;50.058;8.688;2024-03-02T15:16:01;2.15;;;1.92;;
3747;SDS011;1889;50.058;8.688;2024-03-02T15:18:32;1.90;;;1.50;;
3747;SDS011;1889;50.058;8.688;2024-03-02T15:21:02;1.53;;;1.43;;
3747;SDS011;1889;50.058;8.688;2024-03-02T15:25:50;1.50;;;1.40;;
3747;SDS011;1889;50.058;8.688;2024-03-02T15:28:19;2.12;;;1.80;;
3747;SDS011;1889;50.058;8.688;2024-03-02T15:30:49;1.55;;;1.45;;
3747;SDS011;1889;50.058;8.688;2024-03-02T15:33:18;2.03;;;1.50;;
3747;SDS011;1889;50.058;8.688;2024-03-02T15:35:47;1.70;;;1.60;;